CheckWX is a tool to help pilots better visualize weather data.  It is not intended as a substitute for an official pre-flight weather briefing.

20:23:48 UTC

SAAR METAR
Islas Malvinas Airport
Rosario, Argentina
Current

24 mins ago

SAAR 162000Z 02007KT 9999 FEW040 FEW050CB SCT100 BKN200 33/23 Q1002
Observed
Feb-16 @ 20:00 UTC
Wind
  • 020° at 7 KTS
Visibility
10,000+ meters
Flight Rules
VFR
Cloud Levels
  • Few at 4,000' AGL
  • Few at 5,000' AGL
  • Scattered at 10,000' AGL
  • Broken at 20,000' AGL
Temperature
33°C / 91°F
Dewpoint
23°C / 73°F
Heat Index
38°C / 100°F
Humidity
56%
Altimeter
29.59" Hg
Pressure
1001.92 hPa
Previous

1 hour ago

SAAR 161900Z 05008KT 9999 FEW040 SCT200 34/23 Q1002
Observed
Feb-16 @ 19:00 UTC
Wind
  • 050° at 8 KTS
Visibility
10,000+ meters
Flight Rules
VFR
Cloud Levels
  • Few at 4,000' AGL
  • Scattered at 20,000' AGL
Temperature
34°C / 93°F
Dewpoint
23°C / 73°F
Heat Index
39°C / 103°F
Humidity
53%
Altimeter
29.59" Hg
Pressure
1001.92 hPa
Previous

2 hours ago

SAAR 161800Z 02009KT 9999 SCT040 SCT200 33/23 Q1003
Observed
Feb-16 @ 18:00 UTC
Wind
  • 020° at 9 KTS
Visibility
10,000+ meters
Flight Rules
VFR
Cloud Levels
  • Scattered at 4,000' AGL
  • Scattered at 20,000' AGL
Temperature
33°C / 91°F
Dewpoint
23°C / 73°F
Heat Index
38°C / 100°F
Humidity
56%
Altimeter
29.62" Hg
Pressure
1002.92 hPa